Time;durP1;ratioP1;P1;durP2;ratioP2;P2;SDS_P1;SDS_P2;PMS_P1;PMS_P2;Temp;Humidity;BMP_temperature;BMP_pressure;BME280_temperature;BME280_humidity;BME280_pressure;Samples;Min_cycle;Max_cycle;Signal;HPM_P1;HPM_P2
2022/09/18 00:01:23;;;;;;;;;8.00;6.00;;;;;;;;6179091;23;45382;-92
2022/09/18 00:03:49;;;;;;;;;4.67;4.67;;;;;;;;6178978;23;47943;-92
2022/09/18 00:06:15;;;;;;;;;5.33;5.00;;;;;;;;6179155;23;45388;-92
2022/09/18 00:08:42;;;;;;;;;4.67;4.67;;;;;;;;6179536;23;45411;-92
2022/09/18 00:11:11;;;;;;;;;5.33;5.33;;;;;;;;6179285;23;45563;-92
2022/09/18 00:13:37;;;;;;;;;6.00;6.00;;;;;;;;6178845;23;47560;-92
2022/09/18 00:16:03;;;;;;;;;6.00;5.00;;;;;;;;6180938;23;45462;-92
2022/09/18 00:18:28;;;;;;;;;4.00;3.00;;;;;;;;6180583;23;45227;-92
2022/09/18 00:20:53;;;;;;;;;5.33;5.33;;;;;;;;6180193;23;45376;-92
2022/09/18 00:23:19;;;;;;;;;4.33;4.33;;;;;;;;6179655;23;48137;-92
2022/09/18 00:25:44;;;;;;;;;5.00;5.00;;;;;;;;6179844;23;46011;-92
2022/09/18 00:28:09;;;;;;;;;4.67;3.67;;;;;;;;6179843;23;45275;-93
2022/09/18 00:30:34;;;;;;;;;6.50;4.00;;;;;;;;6180788;23;45247;-92
2022/09/18 00:32:59;;;;;;;;;6.00;6.00;;;;;;;;6180089;23;47558;-92
2022/09/18 00:35:25;;;;;;;;;6.00;5.00;;;;;;;;6182861;23;45223;-92
2022/09/18 00:37:50;;;;;;;;;3.67;3.67;;;;;;;;6186542;23;45112;-92
2022/09/18 00:40:16;;;;;;;;;6.33;6.33;;;;;;;;6185027;23;45484;-92
2022/09/18 00:42:42;;;;;;;;;4.00;4.00;;;;;;;;6185148;23;47080;-92
2022/09/18 00:45:09;;;;;;;;;4.00;4.00;;;;;;;;6185067;23;45403;-92
2022/09/18 00:47:37;;;;;;;;;4.00;4.00;;;;;;;;6185546;23;45317;-92
2022/09/18 00:50:05;;;;;;;;;3.67;3.67;;;;;;;;6191427;23;45525;-92
2022/09/18 00:52:38;;;;;;;;;5.00;5.00;;;;;;;;6187651;23;46929;-92
2022/09/18 00:55:07;;;;;;;;;5.00;3.00;;;;;;;;6214432;22;45311;-92
2022/09/18 00:57:34;;;;;;;;;4.67;2.67;;;;;;;;6182526;23;45394;-92
2022/09/18 01:00:00;;;;;;;;;5.00;4.00;;;;;;;;6179431;23;45469;-93
2022/09/18 01:02:25;;;;;;;;;5.00;5.00;;;;;;;;6179751;23;48356;-92
2022/09/18 01:04:50;;;;;;;;;5.33;3.00;;;;;;;;6180611;23;45287;-91
2022/09/18 01:07:34;;;;;;;;;5.33;4.33;;;;;;;;6181990;23;45365;-92
2022/09/18 01:10:15;;;;;;;;;4.33;3.00;;;;;;;;6179688;23;45442;-92
2022/09/18 01:12:49;;;;;;;;;6.67;4.00;;;;;;;;6179482;23;47285;-92
2022/09/18 01:15:29;;;;;;;;;5.00;4.00;;;;;;;;6179739;23;45436;-91
2022/09/18 01:17:58;;;;;;;;;5.00;5.00;;;;;;;;6180140;23;45462;-92
2022/09/18 01:20:42;;;;;;;;;5.67;4.33;;;;;;;;6179770;23;45219;-91
2022/09/18 01:23:11;;;;;;;;;3.00;3.00;;;;;;;;6179580;23;48188;-92
2022/09/18 01:25:42;;;;;;;;;4.67;4.00;;;;;;;;6179859;23;45430;-92
2022/09/18 01:28:15;;;;;;;;;4.00;4.00;;;;;;;;6179608;23;45383;-93
2022/09/18 01:30:42;;;;;;;;;4.00;4.00;;;;;;;;6179480;23;45533;-92
2022/09/18 01:33:18;;;;;;;;;4.67;4.00;;;;;;;;6178980;23;46210;-92
2022/09/18 01:35:47;;;;;;;;;4.00;4.00;;;;;;;;6181604;23;45282;-92
2022/09/18 01:38:26;;;;;;;;;4.67;4.67;;;;;;;;6179547;23;45454;-92
2022/09/18 01:40:55;;;;;;;;;5.00;4.67;;;;;;;;6179610;23;45373;-92
2022/09/18 01:43:22;;;;;;;;;5.67;5.67;;;;;;;;6178593;23;47995;-92
2022/09/18 01:45:49;;;;;;;;;5.33;5.33;;;;;;;;6179802;23;45394;-92
2022/09/18 01:48:32;;;;;;;;;6.00;6.00;;;;;;;;6181882;23;45409;-92
2022/09/18 01:51:03;;;;;;;;;4.00;3.00;;;;;;;;6181664;23;45258;-92
2022/09/18 01:53:42;;;;;;;;;5.00;5.00;;;;;;;;6204626;22;47166;-91
2022/09/18 01:56:14;;;;;;;;;5.00;4.00;;;;;;;;6182127;23;45335;-91
2022/09/18 01:58:40;;;;;;;;;4.00;3.33;;;;;;;;6181602;23;45352;-93
2022/09/18 02:01:08;;;;;;;;;4.00;4.00;;;;;;;;6179939;23;45304;-92
2022/09/18 02:03:40;;;;;;;;;5.67;5.67;;;;;;;;6179363;23;47403;-92
2022/09/18 02:06:18;;;;;;;;;4.00;4.00;;;;;;;;6181255;23;45469;-93
2022/09/18 02:08:46;;;;;;;;;7.33;5.00;;;;;;;;6183889;23;45405;-92
2022/09/18 02:11:13;;;;;;;;;3.33;3.33;;;;;;;;6185723;23;45211;-92
2022/09/18 02:13:55;;;;;;;;;2.00;2.00;;;;;;;;6183391;23;46413;-92
2022/09/18 02:16:25;;;;;;;;;4.67;4.67;;;;;;;;6211506;22;45322;-92
2022/09/18 02:18:52;;;;;;;;;4.33;4.00;;;;;;;;6188892;23;45504;-92
2022/09/18 02:21:22;;;;;;;;;4.00;2.67;;;;;;;;6189567;23;45380;-92
2022/09/18 02:23:47;;;;;;;;;3.00;3.00;;;;;;;;6189152;23;47594;-93
2022/09/18 02:26:13;;;;;;;;;6.00;4.33;;;;;;;;6182363;23;45286;-92
2022/09/18 02:28:39;;;;;;;;;3.00;3.00;;;;;;;;6179493;23;45347;-92
2022/09/18 02:31:04;;;;;;;;;4.67;2.00;;;;;;;;6180161;23;45304;-92
2022/09/18 02:33:31;;;;;;;;;2.67;2.67;;;;;;;;6178865;23;47285;-92
2022/09/18 02:36:15;;;;;;;;;2.33;2.33;;;;;;;;6179845;23;45807;-92
2022/09/18 02:38:59;;;;;;;;;4.33;3.00;;;;;;;;6179929;23;45411;-92
2022/09/18 02:41:27;;;;;;;;;3.00;3.00;;;;;;;;6179154;23;45477;-92
2022/09/18 02:43:56;;;;;;;;;3.00;1.33;;;;;;;;6178956;23;48051;-92
2022/09/18 02:46:35;;;;;;;;;3.33;3.00;;;;;;;;6179464;23;45331;-92
2022/09/18 02:49:24;;;;;;;;;2.00;2.00;;;;;;;;6179433;23;45494;-93
2022/09/18 02:51:49;;;;;;;;;2.33;1.33;;;;;;;;6088299;23;45572;-92
2022/09/18 02:54:33;;;;;;;;;2.00;2.00;;;;;;;;6088641;23;47844;-92
2022/09/18 02:57:02;;;;;;;;;2.33;2.33;;;;;;;;6089204;23;45510;-92
2022/09/18 02:59:33;;;;;;;;;1.00;1.00;;;;;;;;6088775;23;45361;-92
2022/09/18 03:01:59;;;;;;;;;1.33;1.33;;;;;;;;6064728;23;45301;-92
2022/09/18 03:04:26;;;;;;;;;3.00;3.00;;;;;;;;6088691;23;47098;-92
2022/09/18 03:06:51;;;;;;;;;6.67;3.00;;;;;;;;6089225;23;45352;-91
2022/09/18 03:09:16;;;;;;;;;2.00;2.00;;;;;;;;6089433;23;45435;-92
2022/09/18 03:11:41;;;;;;;;;2.67;2.00;;;;;;;;6089574;23;45447;-93
2022/09/18 03:14:07;;;;;;;;;2.67;2.67;;;;;;;;6088508;23;47167;-92
2022/09/18 03:16:32;;;;;;;;;3.67;3.67;;;;;;;;6089127;23;45314;-93
2022/09/18 03:18:58;;;;;;;;;3.33;2.00;;;;;;;;6064702;23;45753;-92
2022/09/18 03:21:23;;;;;;;;;4.00;4.00;;;;;;;;6089219;23;45466;-92
2022/09/18 03:23:48;;;;;;;;;4.00;4.00;;;;;;;;6088743;23;47946;-92
2022/09/18 03:26:14;;;;;;;;;4.00;3.00;;;;;;;;6089463;23;45743;-92
2022/09/18 03:28:39;;;;;;;;;2.00;2.00;;;;;;;;6135305;22;45336;-92
2022/09/18 03:31:04;;;;;;;;;3.67;3.67;;;;;;;;6181358;23;45207;-92
2022/09/18 03:33:29;;;;;;;;;4.00;4.00;;;;;;;;6179902;23;46982;-92
2022/09/18 03:35:55;;;;;;;;;3.33;3.33;;;;;;;;6183629;23;45235;-92
2022/09/18 03:38:20;;;;;;;;;5.33;5.33;;;;;;;;6183923;23;45237;-92
2022/09/18 03:40:45;;;;;;;;;6.00;4.00;;;;;;;;6185033;23;45275;-92
2022/09/18 03:43:11;;;;;;;;;5.00;5.00;;;;;;;;6185389;23;46252;-91
2022/09/18 03:45:36;;;;;;;;;4.67;4.67;;;;;;;;6189379;23;45385;-92
2022/09/18 03:48:01;;;;;;;;;4.00;4.00;;;;;;;;6188664;23;45462;-92
2022/09/18 03:50:27;;;;;;;;;4.00;4.00;;;;;;;;6189310;23;45434;-92
2022/09/18 03:52:52;;;;;;;;;4.00;4.00;;;;;;;;6185406;23;47054;-92
2022/09/18 03:55:17;;;;;;;;;2.67;2.67;;;;;;;;6203996;22;46004;-92
2022/09/18 03:57:44;;;;;;;;;3.67;3.67;;;;;;;;6179214;23;45532;-92
2022/09/18 04:00:10;;;;;;;;;6.67;4.00;;;;;;;;6180732;23;45352;-92
2022/09/18 04:02:35;;;;;;;;;4.00;4.00;;;;;;;;6178199;23;47349;-91
2022/09/18 04:05:01;;;;;;;;;3.33;3.00;;;;;;;;6179217;23;45708;-94
2022/09/18 04:07:26;;;;;;;;;4.00;4.00;;;;;;;;6181338;23;45282;-91
2022/09/18 04:09:51;;;;;;;;;3.33;2.33;;;;;;;;6179580;23;45218;-92
2022/09/18 04:12:16;;;;;;;;;4.00;4.00;;;;;;;;6179256;23;46909;-92
2022/09/18 04:14:42;;;;;;;;;5.00;4.00;;;;;;;;6179479;23;45347;-92
2022/09/18 04:17:07;;;;;;;;;4.67;4.00;;;;;;;;6178953;23;45282;-92
2022/09/18 04:19:32;;;;;;;;;4.00;4.00;;;;;;;;6180443;23;45385;-91
2022/09/18 04:21:57;;;;;;;;;3.67;3.67;;;;;;;;6179217;23;47884;-93
2022/09/18 04:24:22;;;;;;;;;4.00;3.33;;;;;;;;6179078;23;45643;-92
2022/09/18 04:26:48;;;;;;;;;6.00;4.67;;;;;;;;6204490;22;45335;-91
2022/09/18 04:29:14;;;;;;;;;3.00;3.00;;;;;;;;6179307;23;45428;-91
2022/09/18 04:31:39;;;;;;;;;5.00;3.33;;;;;;;;6178252;23;48103;-93
2022/09/18 04:34:04;;;;;;;;;2.33;2.33;;;;;;;;6178856;23;45334;-93
2022/09/18 04:36:30;;;;;;;;;2.00;2.00;;;;;;;;6181634;23;45320;-92
2022/09/18 04:38:55;;;;;;;;;3.00;3.00;;;;;;;;6180936;23;45162;-91
2022/09/18 04:41:20;;;;;;;;;3.33;3.33;;;;;;;;6179072;23;46912;-92
2022/09/18 04:43:45;;;;;;;;;3.00;3.00;;;;;;;;6178314;23;45440;-92
2022/09/18 04:46:11;;;;;;;;;3.00;3.00;;;;;;;;6179026;23;45506;-91
2022/09/18 04:48:36;;;;;;;;;2.00;2.00;;;;;;;;6178778;23;45381;-92
2022/09/18 04:51:01;;;;;;;;;4.00;3.67;;;;;;;;6181304;23;46043;-92
2022/09/18 04:53:27;;;;;;;;;3.00;3.00;;;;;;;;6204584;22;45568;-93
2022/09/18 04:55:52;;;;;;;;;3.00;3.00;;;;;;;;6179237;23;45749;-92
2022/09/18 04:58:18;;;;;;;;;6.33;5.00;;;;;;;;6178552;23;45457;-92
2022/09/18 05:00:43;;;;;;;;;4.00;2.33;;;;;;;;6182055;23;47318;-93
2022/09/18 05:03:09;;;;;;;;;3.00;3.00;;;;;;;;6183839;23;46126;-92
2022/09/18 05:05:34;;;;;;;;;4.00;4.00;;;;;;;;6209674;22;45375;-92
2022/09/18 05:08:00;;;;;;;;;5.00;3.00;;;;;;;;6185559;23;45472;-92
2022/09/18 05:10:26;;;;;;;;;4.33;4.33;;;;;;;;6187231;23;47588;-92
2022/09/18 05:12:51;;;;;;;;;4.00;4.00;;;;;;;;6188209;23;45390;-92
2022/09/18 05:15:17;;;;;;;;;3.00;3.00;;;;;;;;6188899;23;45295;-92
2022/09/18 05:17:42;;;;;;;;;4.00;4.00;;;;;;;;6188754;23;45305;-93
2022/09/18 05:20:08;;;;;;;;;5.33;4.00;;;;;;;;6183398;23;47675;-92
2022/09/18 05:22:34;;;;;;;;;2.00;2.00;;;;;;;;6182408;23;45183;-92
2022/09/18 05:24:59;;;;;;;;;4.00;3.67;;;;;;;;6180214;23;45581;-91
2022/09/18 05:27:24;;;;;;;;;5.00;4.00;;;;;;;;6179267;23;45245;-92
2022/09/18 05:29:49;;;;;;;;;3.00;3.00;;;;;;;;6204589;22;48013;-92
2022/09/18 05:32:18;;;;;;;;;5.00;2.00;;;;;;;;6181561;23;45397;-92
2022/09/18 05:34:44;;;;;;;;;3.00;2.00;;;;;;;;6180129;23;45346;-92
2022/09/18 05:37:09;;;;;;;;;2.00;2.00;;;;;;;;6179659;23;45340;-91
2022/09/18 05:39:34;;;;;;;;;2.00;2.00;;;;;;;;6179823;23;47043;-91
2022/09/18 05:41:59;;;;;;;;;2.33;2.33;;;;;;;;6179078;23;46201;-92
2022/09/18 05:44:25;;;;;;;;;5.00;3.33;;;;;;;;6179299;23;45437;-91
2022/09/18 05:46:50;;;;;;;;;4.33;3.00;;;;;;;;6179482;23;45415;-92
2022/09/18 05:49:15;;;;;;;;;2.67;2.67;;;;;;;;6180380;23;48041;-92
2022/09/18 05:51:40;;;;;;;;;3.00;3.00;;;;;;;;6180219;23;45660;-91
2022/09/18 05:54:05;;;;;;;;;3.33;3.00;;;;;;;;6179853;23;45398;-92
2022/09/18 05:56:31;;;;;;;;;2.00;2.00;;;;;;;;6179704;23;45293;-91
2022/09/18 05:58:56;;;;;;;;;2.00;2.00;;;;;;;;6179159;23;46893;-91
2022/09/18 06:01:21;;;;;;;;;2.33;2.33;;;;;;;;6179469;23;45918;-92
2022/09/18 06:03:50;;;;;;;;;4.00;4.00;;;;;;;;6179360;23;45227;-91
2022/09/18 06:06:15;;;;;;;;;2.00;2.00;;;;;;;;6179993;23;45250;-92
2022/09/18 06:08:40;;;;;;;;;3.67;3.00;;;;;;;;6179371;23;47788;-90
2022/09/18 06:11:05;;;;;;;;;2.00;2.00;;;;;;;;6179541;23;45647;-92
2022/09/18 06:13:31;;;;;;;;;2.33;2.33;;;;;;;;6179959;23;45435;-91
2022/09/18 06:15:57;;;;;;;;;2.67;2.67;;;;;;;;6179730;23;45405;-92
2022/09/18 06:18:22;;;;;;;;;2.67;2.67;;;;;;;;6178447;23;47967;-92
2022/09/18 06:20:55;;;;;;;;;2.33;2.33;;;;;;;;6179748;23;45397;-92
2022/09/18 06:23:25;;;;;;;;;4.00;3.67;;;;;;;;6182083;23;45269;-92
2022/09/18 06:25:57;;;;;;;;;3.00;3.00;;;;;;;;6180370;23;45406;-91
2022/09/18 06:28:22;;;;;;;;;5.67;4.00;;;;;;;;6183795;23;48223;-92
2022/09/18 06:30:48;;;;;;;;;4.00;4.00;;;;;;;;6183169;23;45893;-91
2022/09/18 06:33:13;;;;;;;;;2.67;2.67;;;;;;;;6183271;23;45384;-94
2022/09/18 06:35:38;;;;;;;;;4.67;3.33;;;;;;;;6179132;23;45310;-87
2022/09/18 06:38:05;;;;;;;;;2.00;2.00;;;;;;;;6180342;23;46054;-87
2022/09/18 06:40:30;;;;;;;;;2.67;1.67;;;;;;;;6180422;23;45334;-88
2022/09/18 06:43:02;;;;;;;;;2.33;2.00;;;;;;;;6203458;22;45507;-88
2022/09/18 06:45:28;;;;;;;;;3.00;2.33;;;;;;;;6181634;23;45315;-94
2022/09/18 06:47:54;;;;;;;;;2.00;2.00;;;;;;;;6181091;23;48279;-95
2022/09/18 06:50:20;;;;;;;;;2.67;2.33;;;;;;;;6183242;23;45362;-95
2022/09/18 06:52:45;;;;;;;;;5.00;3.00;;;;;;;;6182155;23;45359;-95
2022/09/18 06:55:11;;;;;;;;;1.67;1.67;;;;;;;;6180623;23;45338;-93
2022/09/18 06:57:36;;;;;;;;;2.67;2.67;;;;;;;;6206511;22;47035;-96
2022/09/18 07:00:01;;;;;;;;;2.50;2.00;;;;;;;;6183438;23;45274;-95
2022/09/18 07:02:26;;;;;;;;;2.00;2.00;;;;;;;;6181374;23;45294;-95
2022/09/18 07:04:51;;;;;;;;;3.00;2.33;;;;;;;;6183650;23;45253;-95
2022/09/18 07:07:17;;;;;;;;;1.00;1.00;;;;;;;;6183183;23;45400;-95
2022/09/18 07:09:42;;;;;;;;;2.67;2.67;;;;;;;;6182817;23;45279;-96
2022/09/18 07:12:07;;;;;;;;;3.67;3.00;;;;;;;;6181365;23;45327;-93
2022/09/18 07:14:32;;;;;;;;;2.67;2.67;;;;;;;;6182685;23;45290;-95
2022/09/18 07:16:58;;;;;;;;;2.00;2.00;;;;;;;;6208069;22;48004;-91
2022/09/18 07:19:23;;;;;;;;;3.00;3.00;;;;;;;;6182493;23;45394;-93
2022/09/18 07:21:50;;;;;;;;;2.00;2.00;;;;;;;;6180396;23;45481;-92
2022/09/18 07:24:15;;;;;;;;;5.00;4.00;;;;;;;;6180397;23;45274;-90
2022/09/18 07:26:40;;;;;;;;;3.33;3.33;;;;;;;;6181511;23;45331;-92
2022/09/18 07:29:05;;;;;;;;;5.00;4.00;;;;;;;;6178442;23;45309;-91
2022/09/18 07:31:33;;;;;;;;;4.33;3.00;;;;;;;;6178616;23;45236;-89
2022/09/18 07:33:58;;;;;;;;;2.67;2.67;;;;;;;;6179633;23;45477;-94
2022/09/18 07:36:23;;;;;;;;;3.00;3.00;;;;;;;;6208051;22;46018;-92
2022/09/18 07:38:50;;;;;;;;;3.67;3.00;;;;;;;;6182896;23;45262;-93
2022/09/18 07:41:15;;;;;;;;;4.33;3.00;;;;;;;;6181102;23;45363;-95
2022/09/18 07:43:40;;;;;;;;;4.33;3.67;;;;;;;;6184831;23;45397;-95
2022/09/18 07:46:06;;;;;;;;;2.00;2.00;;;;;;;;6190215;23;45313;-96
2022/09/18 07:48:32;;;;;;;;;2.00;2.00;;;;;;;;6193978;23;45264;-96
2022/09/18 07:50:57;;;;;;;;;2.33;2.33;;;;;;;;6195304;23;45158;-96
2022/09/18 07:53:23;;;;;;;;;3.00;2.00;;;;;;;;6197436;22;44638;-96
2022/09/18 07:55:48;;;;;;;;;4.00;4.00;;;;;;;;6198463;23;45290;-96
2022/09/18 07:58:14;;;;;;;;;3.00;3.00;;;;;;;;6192509;23;45212;-96
2022/09/18 08:00:39;;;;;;;;;2.67;2.67;;;;;;;;6194018;23;45354;-96
2022/09/18 08:03:05;;;;;;;;;3.00;3.00;;;;;;;;6166976;23;45837;-96
2022/09/18 08:05:31;;;;;;;;;4.00;4.00;;;;;;;;6219197;22;47337;-96
2022/09/18 08:08:01;;;;;;;;;4.33;3.00;;;;;;;;6194539;23;45280;-96
2022/09/18 08:10:26;;;;;;;;;3.00;3.00;;;;;;;;6198054;23;45145;-96
2022/09/18 08:12:52;;;;;;;;;3.00;3.00;;;;;;;;6190269;23;45249;-96
2022/09/18 08:15:17;;;;;;;;;3.00;2.00;;;;;;;;6209762;22;46366;-96
2022/09/18 08:17:44;;;;;;;;;3.00;3.00;;;;;;;;6206656;22;45562;-95
2022/09/18 08:20:09;;;;;;;;;3.00;3.00;;;;;;;;6192110;23;45313;-95
2022/09/18 08:22:38;;;;;;;;;4.33;4.33;;;;;;;;6200495;22;44771;-96
2022/09/18 08:30:14;;;;;;;;;4.00;4.00;;;;;;;;6224421;22;44690;-96
2022/09/18 08:32:39;;;;;;;;;5.00;3.00;;;;;;;;6181993;22;45286;-96
2022/09/18 08:35:05;;;;;;;;;3.33;3.33;;;;;;;;6199067;22;46743;-96
2022/09/18 08:37:32;;;;;;;;;3.67;3.00;;;;;;;;6141612;23;45309;-94
2022/09/18 08:39:57;;;;;;;;;3.00;3.00;;;;;;;;6170284;22;46278;-95
2022/09/18 08:42:41;;;;;;;;;4.67;3.00;;;;;;;;6167566;22;45805;-95
2022/09/18 08:45:13;;;;;;;;;4.33;3.33;;;;;;;;6185817;23;46105;-96
2022/09/18 08:47:41;;;;;;;;;3.00;2.00;;;;;;;;6199047;23;45244;-96
2022/09/18 08:50:25;;;;;;;;;4.00;4.00;;;;;;;;6189336;22;45358;-96
2022/09/18 08:52:55;;;;;;;;;2.00;2.00;;;;;;;;6158192;23;45362;-96
2022/09/18 08:55:20;;;;;;;;;2.67;2.67;;;;;;;;6182977;22;46849;-93
2022/09/18 08:57:47;;;;;;;;;2.00;2.00;;;;;;;;6156820;23;45342;-95
2022/09/18 09:00:21;;;;;;;;;3.00;3.00;;;;;;;;6183551;23;45477;-94
2022/09/18 09:03:01;;;;;;;;;2.33;2.00;;;;;;;;6156636;23;45338;-94
2022/09/18 09:05:29;;;;;;;;;3.00;3.00;;;;;;;;6184300;22;46285;-94
2022/09/18 09:08:07;;;;;;;;;2.00;2.00;;;;;;;;6211017;22;45251;-93
2022/09/18 09:10:39;;;;;;;;;3.00;3.00;;;;;;;;6160522;23;44759;-94
2022/09/18 09:13:29;;;;;;;;;2.67;2.00;;;;;;;;6183161;23;45434;-94
2022/09/18 09:15:54;;;;;;;;;3.33;3.33;;;;;;;;6158897;23;48749;-94
2022/09/18 09:18:19;;;;;;;;;3.00;3.00;;;;;;;;6188766;23;45262;-96
2022/09/18 09:20:49;;;;;;;;;3.75;3.75;;;;;;;;6167145;23;45359;-96
2022/09/18 09:23:21;;;;;;;;;1.33;1.00;;;;;;;;6159449;23;45578;-94
2022/09/18 09:26:00;;;;;;;;;2.00;2.00;;;;;;;;6162499;23;47396;-93
2022/09/18 09:28:30;;;;;;;;;2.67;2.67;;;;;;;;6160402;23;45268;-93
2022/09/18 09:30:59;;;;;;;;;2.67;2.00;;;;;;;;6162592;23;45480;-95
2022/09/18 09:33:26;;;;;;;;;6.00;4.00;;;;;;;;6187352;23;45274;-94
2022/09/18 09:36:01;;;;;;;;;1.00;1.00;;;;;;;;6184613;23;45444;-94
2022/09/18 09:38:40;;;;;;;;;5.67;3.33;;;;;;;;6183651;23;45307;-94
2022/09/18 09:41:11;;;;;;;;;1.00;1.00;;;;;;;;6182453;23;45360;-93
2022/09/18 09:43:53;;;;;;;;;1.00;1.00;;;;;;;;6156026;23;45458;-95
2022/09/18 09:46:39;;;;;;;;;7.33;5.00;;;;;;;;6182360;23;45295;-94
2022/09/18 09:49:08;;;;;;;;;3.00;3.00;;;;;;;;6089265;23;45485;-94
2022/09/18 09:51:34;;;;;;;;;1.67;1.67;;;;;;;;6090443;23;45405;-92
2022/09/18 09:54:00;;;;;;;;;2.00;2.00;;;;;;;;6090286;23;45324;-93
2022/09/18 09:56:25;;;;;;;;;2.00;2.00;;;;;;;;6066222;23;47767;-94
2022/09/18 09:58:55;;;;;;;;;2.00;2.00;;;;;;;;6090960;23;45406;-93
2022/09/18 10:01:23;;;;;;;;;1.67;1.67;;;;;;;;6090208;23;45333;-93
2022/09/18 10:03:51;;;;;;;;;2.67;2.00;;;;;;;;6090089;23;45345;-93
2022/09/18 10:06:40;;;;;;;;;2.33;1.33;;;;;;;;6090165;23;46302;-93
2022/09/18 10:09:14;;;;;;;;;3.67;2.67;;;;;;;;6090719;23;45343;-94
2022/09/18 10:11:41;;;;;;;;;4.00;2.33;;;;;;;;6090637;23;45236;-94
2022/09/18 10:14:11;;;;;;;;;3.67;2.33;;;;;;;;6065579;23;45463;-93
2022/09/18 10:16:42;;;;;;;;;1.00;1.00;;;;;;;;6090615;23;48607;-93
2022/09/18 10:19:12;;;;;;;;;1.33;0.67;;;;;;;;6089336;23;45789;-93
2022/09/18 10:21:39;;;;;;;;;2.00;1.00;;;;;;;;6091306;23;45254;-93
2022/09/18 10:24:07;;;;;;;;;1.33;1.33;;;;;;;;6090876;23;45246;-93
2022/09/18 10:26:41;;;;;;;;;3.67;2.00;;;;;;;;6148739;23;47239;-94
2022/09/18 10:29:08;;;;;;;;;1.67;1.67;;;;;;;;6155319;23;45297;-94
2022/09/18 10:31:45;;;;;;;;;1.67;1.67;;;;;;;;6155861;23;45224;-94
2022/09/18 10:34:29;;;;;;;;;1.00;1.00;;;;;;;;6182478;23;45338;-94
2022/09/18 10:36:55;;;;;;;;;2.00;2.00;;;;;;;;6182288;23;45367;-92
2022/09/18 10:39:23;;;;;;;;;2.00;2.00;;;;;;;;6206391;22;45390;-93
2022/09/18 10:41:48;;;;;;;;;2.67;2.00;;;;;;;;6157168;23;45258;-93
2022/09/18 10:44:13;;;;;;;;;1.67;1.67;;;;;;;;6156318;23;45389;-94
2022/09/18 10:46:49;;;;;;;;;0.00;0.00;;;;;;;;6155703;23;46923;-92
2022/09/18 10:49:17;;;;;;;;;6.67;4.67;;;;;;;;6209918;22;45293;-92
2022/09/18 10:51:42;;;;;;;;;1.00;1.00;;;;;;;;6186959;23;45268;-94
2022/09/18 10:54:16;;;;;;;;;8.00;6.33;;;;;;;;6161274;23;45264;-93
2022/09/18 10:56:41;;;;;;;;;18.67;13.00;;;;;;;;6184101;23;46327;-94
2022/09/18 10:59:13;;;;;;;;;11.67;11.00;;;;;;;;6154982;23;45557;-93
2022/09/18 11:01:39;;;;;;;;;2.00;2.00;;;;;;;;6181774;23;45265;-93
2022/09/18 11:04:05;;;;;;;;;14.33;10.33;;;;;;;;6205999;22;45307;-93
2022/09/18 11:06:33;;;;;;;;;5.00;3.00;;;;;;;;6182499;23;45221;-95
2022/09/18 11:09:00;;;;;;;;;3.00;2.33;;;;;;;;6182129;23;45256;-93
2022/09/18 11:11:26;;;;;;;;;3.67;2.00;;;;;;;;6154901;23;45446;-91
2022/09/18 11:14:03;;;;;;;;;4.67;2.67;;;;;;;;6183035;23;45323;-93
2022/09/18 11:16:30;;;;;;;;;4.00;4.00;;;;;;;;6154679;23;47197;-95
2022/09/18 11:19:03;;;;;;;;;5.00;5.00;;;;;;;;6155299;23;45382;-94
2022/09/18 11:21:29;;;;;;;;;7.67;5.33;;;;;;;;6182572;23;45259;-93
2022/09/18 11:24:02;;;;;;;;;4.00;4.00;;;;;;;;6155966;23;45169;-94
2022/09/18 11:26:28;;;;;;;;;3.67;3.00;;;;;;;;6155428;23;47624;-95
2022/09/18 11:29:12;;;;;;;;;2.67;2.67;;;;;;;;6155816;23;45185;-95
2022/09/18 11:31:41;;;;;;;;;3.00;3.00;;;;;;;;6156270;23;45160;-93
2022/09/18 11:34:15;;;;;;;;;3.33;3.33;;;;;;;;6182839;23;45467;-93
2022/09/18 11:36:45;;;;;;;;;6.67;5.00;;;;;;;;6155323;23;47466;-95
2022/09/18 11:39:18;;;;;;;;;6.00;4.00;;;;;;;;6155848;23;45355;-93
2022/09/18 11:41:46;;;;;;;;;4.67;3.00;;;;;;;;6206315;22;45395;-94
2022/09/18 11:44:22;;;;;;;;;5.00;3.00;;;;;;;;6155055;23;45269;-93
2022/09/18 11:47:00;;;;;;;;;3.00;2.67;;;;;;;;6181837;23;46463;-94
2022/09/18 11:49:29;;;;;;;;;2.00;2.00;;;;;;;;6181867;23;45324;-95
2022/09/18 11:52:02;;;;;;;;;2.00;2.00;;;;;;;;6155538;23;45220;-92
2022/09/18 11:54:32;;;;;;;;;2.00;2.00;;;;;;;;6183082;23;45327;-95
2022/09/18 11:56:59;;;;;;;;;4.00;2.67;;;;;;;;6154619;23;48364;-92
2022/09/18 11:59:28;;;;;;;;;4.00;4.00;;;;;;;;6155227;23;45332;-93
2022/09/18 12:01:57;;;;;;;;;4.67;3.67;;;;;;;;6181575;23;45288;-94
2022/09/18 12:04:37;;;;;;;;;4.33;4.33;;;;;;;;6157631;23;45541;-94
2022/09/18 12:07:16;;;;;;;;;3.00;2.67;;;;;;;;6185717;23;46349;-94
2022/09/18 12:09:47;;;;;;;;;3.33;3.33;;;;;;;;6186982;23;45477;-95
2022/09/18 12:12:16;;;;;;;;;2.33;2.00;;;;;;;;6184694;23;45325;-93
2022/09/18 12:14:52;;;;;;;;;2.67;1.67;;;;;;;;6211655;22;45219;-94
2022/09/18 12:17:36;;;;;;;;;4.00;4.00;;;;;;;;6212584;22;46528;-93
2022/09/18 12:20:06;;;;;;;;;3.33;2.67;;;;;;;;6189571;23;45187;-96
2022/09/18 12:22:41;;;;;;;;;5.00;5.00;;;;;;;;6183007;23;45395;-94
2022/09/18 12:25:11;;;;;;;;;1.00;1.00;;;;;;;;6155337;23;45556;-94
2022/09/18 12:27:44;;;;;;;;;3.33;1.67;;;;;;;;6153740;23;49042;-95
2022/09/18 12:30:11;;;;;;;;;4.00;3.67;;;;;;;;6154139;23;46071;-95
2022/09/18 12:32:55;;;;;;;;;4.00;4.00;;;;;;;;6155132;23;45272;-92
2022/09/18 12:35:31;;;;;;;;;4.67;3.00;;;;;;;;6154779;23;45271;-94
2022/09/18 12:38:05;;;;;;;;;2.00;1.00;;;;;;;;6153749;23;47499;-94
2022/09/18 12:40:36;;;;;;;;;1.00;1.00;;;;;;;;6180783;23;45718;-94
2022/09/18 12:43:01;;;;;;;;;4.67;2.00;;;;;;;;6153845;23;45376;-95
2022/09/18 12:45:29;;;;;;;;;1.25;1.00;;;;;;;;6181360;23;45256;-94
2022/09/18 12:48:06;;;;;;;;;2.00;2.00;;;;;;;;6153658;23;48509;-94
2022/09/18 12:50:32;;;;;;;;;1.00;0.67;;;;;;;;6153994;23;45310;-95
2022/09/18 12:53:00;;;;;;;;;4.33;1.00;;;;;;;;6154524;23;45322;-96
2022/09/18 12:55:31;;;;;;;;;1.33;1.33;;;;;;;;6181858;23;45191;-95
2022/09/18 12:58:06;;;;;;;;;0.00;0.00;;;;;;;;6153473;23;47126;-95
2022/09/18 13:00:31;;;;;;;;;1.33;1.00;;;;;;;;6180560;23;45670;-94
2022/09/18 13:02:57;;;;;;;;;0.33;0.33;;;;;;;;6153902;23;45269;-94
2022/09/18 13:05:25;;;;;;;;;0.00;0.00;;;;;;;;6154444;23;45453;-95
2022/09/18 13:07:56;;;;;;;;;1.33;0.33;;;;;;;;6153783;23;47942;-94
2022/09/18 13:10:25;;;;;;;;;2.33;1.67;;;;;;;;6158371;23;45256;-95
2022/09/18 13:12:53;;;;;;;;;0.00;0.00;;;;;;;;6180304;23;45294;-93
2022/09/18 13:15:21;;;;;;;;;0.00;0.00;;;;;;;;6153425;23;45586;-95
2022/09/18 13:17:49;;;;;;;;;1.67;1.00;;;;;;;;6153124;23;47255;-91
2022/09/18 13:20:22;;;;;;;;;0.00;0.00;;;;;;;;6153918;23;45277;-94
2022/09/18 13:22:48;;;;;;;;;1.50;1.50;;;;;;;;6154293;23;45333;-95
2022/09/18 13:25:19;;;;;;;;;0.00;0.00;;;;;;;;6180721;23;45263;-94
2022/09/18 13:27:44;;;;;;;;;0.67;0.67;;;;;;;;6180404;23;45431;-96
2022/09/18 13:30:14;;;;;;;;;0.00;0.00;;;;;;;;6182940;23;45255;-94
2022/09/18 13:32:40;;;;;;;;;3.00;2.00;;;;;;;;6157269;23;45826;-94
2022/09/18 13:35:18;;;;;;;;;4.00;4.00;;;;;;;;6158411;23;45485;-95
2022/09/18 13:37:43;;;;;;;;;4.67;4.67;;;;;;;;6156657;23;46037;-93
2022/09/18 13:40:24;;;;;;;;;1.67;1.67;;;;;;;;6187925;23;45382;-95
2022/09/18 13:42:49;;;;;;;;;1.67;1.67;;;;;;;;6161813;23;45267;-95
2022/09/18 13:45:19;;;;;;;;;1.00;1.00;;;;;;;;6188436;23;45450;-95
2022/09/18 13:48:03;;;;;;;;;0.00;0.00;;;;;;;;6186585;23;46503;-94
2022/09/18 13:50:29;;;;;;;;;1.67;1.67;;;;;;;;6182177;23;45407;-93
2022/09/18 13:52:56;;;;;;;;;1.00;1.00;;;;;;;;6156351;23;45415;-95
2022/09/18 13:55:25;;;;;;;;;2.00;2.00;;;;;;;;6155883;23;45262;-95
2022/09/18 13:58:11;;;;;;;;;1.00;1.00;;;;;;;;6154762;23;47308;-95
2022/09/18 14:00:37;;;;;;;;;2.33;2.33;;;;;;;;6155656;23;45251;-95
2022/09/18 14:03:05;;;;;;;;;1.33;1.33;;;;;;;;6181655;23;45319;-93
2022/09/18 14:05:35;;;;;;;;;1.00;1.00;;;;;;;;6156218;23;45440;-94
2022/09/18 14:08:21;;;;;;;;;2.00;2.00;;;;;;;;6182820;23;46551;-93
2022/09/18 14:10:46;;;;;;;;;2.33;2.33;;;;;;;;6155479;23;45309;-94
2022/09/18 14:13:17;;;;;;;;;2.67;2.00;;;;;;;;6155579;23;45310;-96
2022/09/18 14:15:55;;;;;;;;;2.00;2.00;;;;;;;;6182780;23;45351;-94
2022/09/18 14:18:40;;;;;;;;;2.00;2.00;;;;;;;;6181263;23;46575;-94
2022/09/18 14:21:18;;;;;;;;;1.00;1.00;;;;;;;;6144816;23;45347;-95
2022/09/18 14:23:46;;;;;;;;;1.00;1.00;;;;;;;;6155305;23;45385;-94
2022/09/18 14:26:37;;;;;;;;;0.00;0.00;;;;;;;;6182225;23;45278;-95
2022/09/18 14:29:15;;;;;;;;;2.67;2.00;;;;;;;;6156291;23;48324;-96
2022/09/18 14:31:43;;;;;;;;;0.00;0.00;;;;;;;;6182484;23;45394;-96
2022/09/18 14:34:12;;;;;;;;;2.00;2.00;;;;;;;;6183182;23;45286;-96
2022/09/18 14:36:43;;;;;;;;;0.00;0.00;;;;;;;;6156280;23;45556;-95
2022/09/18 14:39:25;;;;;;;;;0.00;0.00;;;;;;;;6183071;23;45567;-96
2022/09/18 14:41:52;;;;;;;;;1.00;1.00;;;;;;;;6155663;23;45329;-96
2022/09/18 14:44:18;;;;;;;;;2.00;2.00;;;;;;;;6182905;23;45233;-96
2022/09/18 14:46:54;;;;;;;;;0.00;0.00;;;;;;;;6206749;22;45413;-95
2022/09/18 14:49:40;;;;;;;;;0.00;0.00;;;;;;;;6154967;23;46534;-95
2022/09/18 14:52:18;;;;;;;;;0.00;0.00;;;;;;;;6182577;23;45220;-95
2022/09/18 14:54:45;;;;;;;;;0.00;0.00;;;;;;;;6182168;23;45653;-95
2022/09/18 14:57:11;;;;;;;;;0.00;0.00;;;;;;;;6156398;23;45446;-94
2022/09/18 14:59:37;;;;;;;;;0.00;0.00;;;;;;;;6156186;23;46992;-95